createdAt,value
2022-09-15T00:01:15.809Z,2.17
2022-09-15T00:03:43.565Z,1.45
2022-09-15T00:06:12.244Z,4.28
2022-09-15T00:08:39.968Z,2.08
2022-09-15T00:11:20.510Z,3.75
2022-09-15T00:13:48.918Z,4.63
2022-09-15T00:16:22.161Z,4.30
2022-09-15T00:18:49.931Z,3.40
2022-09-15T00:21:25.314Z,4.75
2022-09-15T00:23:53.033Z,2.40
2022-09-15T00:26:24.250Z,4.07
2022-09-15T00:28:52.598Z,1.45
2022-09-15T00:31:23.378Z,3.42
2022-09-15T00:33:54.368Z,2.90
2022-09-15T00:36:23.546Z,2.13
2022-09-15T00:38:51.927Z,2.45
2022-09-15T00:41:22.634Z,2.70
2022-09-15T00:43:59.887Z,3.90
2022-09-15T00:46:35.641Z,3.03
2022-09-15T00:49:30.371Z,1.90
2022-09-15T00:52:07.727Z,2.42
2022-09-15T00:54:51.103Z,2.30
2022-09-15T00:57:29.584Z,1.58
2022-09-15T01:02:47.660Z,3.28
2022-09-15T01:05:18.830Z,2.00
2022-09-15T01:08:01.185Z,1.92
2022-09-15T01:10:35.085Z,4.20
2022-09-15T01:13:15.158Z,1.92
2022-09-15T01:16:04.006Z,2.97
2022-09-15T01:22:22.946Z,1.50
2022-09-15T01:25:23.800Z,2.28
2022-09-15T01:28:11.181Z,2.22
2022-09-15T01:30:50.162Z,3.10
2022-09-15T01:33:47.875Z,2.53
2022-09-15T01:36:21.340Z,2.33
2022-09-15T01:39:15.976Z,5.40
2022-09-15T01:41:51.061Z,1.65
2022-09-15T01:44:52.362Z,3.75
2022-09-15T01:47:22.643Z,2.15
2022-09-15T01:50:13.692Z,2.58
2022-09-15T01:52:47.180Z,2.75
2022-09-15T01:55:30.326Z,2.50
2022-09-15T01:57:59.780Z,1.30
2022-09-15T02:00:27.348Z,3.33
2022-09-15T02:03:05.939Z,2.20
2022-09-15T02:05:40.340Z,2.35
2022-09-15T02:08:28.740Z,2.20
2022-09-15T02:11:25.272Z,2.10
2022-09-15T02:14:23.233Z,1.60
2022-09-15T02:16:54.599Z,3.00
2022-09-15T02:19:33.068Z,1.98
2022-09-15T02:22:10.812Z,1.92
2022-09-15T02:24:52.554Z,4.35
2022-09-15T02:27:24.236Z,1.50
2022-09-15T02:29:57.081Z,3.42
2022-09-15T02:32:28.271Z,1.77
2022-09-15T02:34:57.514Z,2.70
2022-09-15T02:37:26.551Z,4.10
2022-09-15T02:39:58.274Z,3.13
2022-09-15T02:42:29.578Z,2.13
2022-09-15T02:44:58.469Z,2.20
2022-09-15T02:47:26.436Z,1.90
2022-09-15T02:49:53.989Z,2.40
2022-09-15T02:52:21.581Z,1.27
2022-09-15T02:54:49.221Z,2.33
2022-09-15T02:57:16.964Z,2.88
2022-09-15T03:00:03.279Z,2.55
2022-09-15T03:02:31.623Z,1.40
2022-09-15T03:04:59.255Z,1.90
2022-09-15T03:07:28.675Z,2.80
2022-09-15T03:09:56.118Z,1.65
2022-09-15T03:12:24.748Z,1.90
2022-09-15T03:14:53.024Z,2.25
2022-09-15T03:17:20.502Z,2.80
2022-09-15T03:19:47.812Z,1.60
2022-09-15T03:22:15.240Z,2.10
2022-09-15T03:24:42.731Z,2.03
2022-09-15T03:27:10.107Z,2.28
2022-09-15T03:29:37.458Z,2.20
2022-09-15T03:32:05.151Z,2.78
2022-09-15T03:34:32.398Z,1.83
2022-09-15T03:37:00.025Z,1.83
2022-09-15T03:39:27.648Z,1.90
2022-09-15T03:41:54.967Z,1.05
2022-09-15T03:44:22.360Z,1.95
2022-09-15T03:46:49.772Z,2.28
2022-09-15T03:49:17.682Z,3.95
2022-09-15T03:51:45.525Z,3.50
2022-09-15T03:54:13.175Z,1.55
2022-09-15T03:56:41.588Z,2.28
2022-09-15T03:59:09.495Z,2.00
2022-09-15T04:01:36.950Z,1.63
2022-09-15T04:04:04.277Z,1.98
2022-09-15T04:06:31.808Z,2.75
2022-09-15T04:09:00.358Z,2.67
2022-09-15T04:11:28.104Z,2.33
2022-09-15T04:13:55.964Z,2.80
2022-09-15T04:16:25.261Z,2.67
2022-09-15T04:18:53.329Z,1.50
2022-09-15T04:21:24.102Z,2.15
2022-09-15T04:23:52.443Z,3.05
2022-09-15T04:26:30.096Z,1.63
2022-09-15T04:29:03.015Z,2.00
2022-09-15T04:31:31.754Z,2.05
2022-09-15T04:33:59.655Z,2.15
2022-09-15T04:36:29.044Z,1.83
2022-09-15T04:38:57.621Z,1.40
2022-09-15T04:41:27.088Z,2.85
2022-09-15T04:43:54.871Z,2.67
2022-09-15T04:46:22.372Z,4.72
2022-09-15T04:48:49.902Z,2.90
2022-09-15T04:51:24.001Z,6.57
2022-09-15T04:53:52.986Z,14.20
2022-09-15T04:56:23.895Z,6.43
2022-09-15T04:59:03.193Z,11.10
2022-09-15T05:01:35.386Z,13.75
2022-09-15T05:04:04.713Z,16.02
2022-09-15T05:06:35.049Z,17.98
2022-09-15T05:09:09.977Z,10.65
2022-09-15T05:11:38.827Z,12.20
2022-09-15T05:14:07.180Z,15.88
2022-09-15T05:16:34.723Z,16.73
2022-09-15T05:19:04.971Z,7.60
2022-09-15T05:21:33.477Z,10.68
2022-09-15T05:24:01.086Z,12.50
2022-09-15T05:26:30.354Z,12.30
2022-09-15T05:28:58.557Z,11.43
2022-09-15T05:31:31.266Z,7.95
2022-09-15T05:34:05.887Z,14.50
2022-09-15T05:36:34.106Z,10.82
2022-09-15T05:39:02.078Z,12.80
2022-09-15T05:41:30.197Z,14.25
2022-09-15T05:43:59.203Z,14.45
2022-09-15T05:46:28.311Z,15.93
2022-09-15T05:48:58.501Z,17.35
2022-09-15T05:51:25.849Z,18.98
2022-09-15T05:53:53.313Z,23.70
2022-09-15T05:56:21.061Z,18.83
2022-09-15T05:58:50.692Z,13.07
2022-09-15T06:01:22.108Z,12.20
2022-09-15T06:03:50.094Z,16.10
2022-09-15T06:06:17.954Z,17.92
2022-09-15T06:08:56.909Z,18.30
2022-09-15T06:11:31.314Z,10.82
2022-09-15T06:14:06.200Z,30.30
2022-09-15T06:16:36.054Z,10.57
2022-09-15T06:19:04.363Z,29.13
2022-09-15T06:21:33.165Z,29.15
2022-09-15T06:24:07.415Z,23.92
2022-09-15T06:26:35.386Z,20.05
2022-09-15T06:29:05.376Z,24.27
2022-09-15T06:31:34.560Z,52.33
2022-09-15T06:34:04.151Z,27.55
2022-09-15T06:36:32.499Z,16.98
2022-09-15T06:39:00.305Z,24.92
2022-09-15T06:41:42.668Z,15.63
2022-09-15T06:44:19.939Z,20.08
2022-09-15T06:46:47.685Z,18.77
2022-09-15T06:49:15.175Z,24.98
2022-09-15T06:51:42.577Z,28.13
2022-09-15T06:54:09.916Z,14.88
2022-09-15T06:56:38.417Z,14.07
2022-09-15T06:59:06.233Z,19.98
2022-09-15T07:01:34.209Z,13.38
2022-09-15T07:04:05.796Z,13.50
2022-09-15T07:06:34.128Z,13.45
2022-09-15T07:09:02.666Z,11.65
2022-09-15T07:11:31.095Z,10.70
2022-09-15T07:13:59.327Z,18.15
2022-09-15T07:16:29.758Z,11.82
2022-09-15T07:19:00.698Z,14.95
2022-09-15T07:21:28.616Z,10.73
2022-09-15T07:23:58.207Z,12.07
2022-09-15T07:26:29.239Z,11.13
2022-09-15T07:29:03.359Z,10.02
2022-09-15T07:31:33.923Z,6.63
2022-09-15T07:34:02.482Z,7.65
2022-09-15T07:36:31.316Z,7.50
2022-09-15T07:38:58.748Z,4.85
2022-09-15T07:41:29.540Z,7.97
2022-09-15T07:43:59.681Z,8.68
2022-09-15T07:46:31.246Z,6.88
2022-09-15T07:48:59.119Z,6.80
2022-09-15T07:51:27.189Z,5.82
2022-09-15T07:53:54.965Z,9.93
2022-09-15T07:56:23.546Z,6.90
2022-09-15T07:58:51.946Z,8.45
2022-09-15T08:01:22.709Z,6.63
2022-09-15T08:03:52.635Z,10.63
2022-09-15T08:06:24.088Z,8.70
2022-09-15T08:08:57.763Z,6.28
2022-09-15T08:11:28.706Z,8.93
2022-09-15T08:13:56.217Z,8.00
2022-09-15T08:16:25.451Z,7.32
2022-09-15T08:18:54.782Z,4.47
2022-09-15T08:21:22.978Z,5.88
2022-09-15T08:23:56.394Z,4.43
2022-09-15T08:26:25.360Z,7.97
2022-09-15T08:28:53.644Z,4.20
2022-09-15T08:31:21.668Z,6.97
2022-09-15T08:33:51.999Z,7.10
2022-09-15T08:36:20.324Z,4.25
2022-09-15T08:38:48.103Z,4.57
2022-09-15T08:41:36.483Z,10.25
2022-09-15T08:44:43.823Z,3.42
2022-09-15T08:47:44.725Z,4.15
2022-09-15T08:50:24.896Z,3.63
2022-09-15T08:53:02.417Z,3.78
2022-09-15T08:55:55.608Z,6.53
2022-09-15T08:58:26.068Z,4.38
2022-09-15T09:01:12.393Z,3.45
2022-09-15T09:04:21.303Z,6.00
2022-09-15T09:07:03.761Z,4.75
2022-09-15T09:09:38.700Z,4.00
2022-09-15T09:12:53.499Z,5.47
2022-09-15T09:15:47.101Z,3.45
2022-09-15T09:19:05.216Z,5.03
2022-09-15T09:21:38.743Z,4.30
2022-09-15T09:24:18.864Z,3.22
2022-09-15T09:26:52.054Z,2.85
2022-09-15T09:29:28.301Z,4.40
2022-09-15T09:31:56.966Z,3.20
2022-09-15T09:34:47.304Z,5.82
2022-09-15T09:37:17.266Z,2.83
2022-09-15T09:39:45.538Z,7.35
2022-09-15T09:42:18.729Z,2.33
2022-09-15T09:44:47.733Z,3.45
2022-09-15T09:47:15.710Z,4.88
2022-09-15T09:49:47.711Z,7.15
2022-09-15T09:52:36.122Z,4.80
2022-09-15T09:55:37.571Z,4.15
2022-09-15T09:58:21.001Z,5.20
2022-09-15T10:00:52.056Z,2.15
2022-09-15T10:03:24.975Z,9.40
2022-09-15T10:06:25.091Z,4.07
2022-09-15T10:09:09.295Z,2.20
2022-09-15T10:11:54.708Z,3.28
2022-09-15T10:17:21.539Z,4.93
2022-09-15T10:19:59.684Z,9.05
2022-09-15T10:22:40.448Z,5.50
2022-09-15T10:25:20.102Z,13.23
2022-09-15T10:28:16.907Z,6.65
2022-09-15T10:31:07.190Z,6.10
2022-09-15T10:33:40.525Z,3.47
2022-09-15T10:36:18.066Z,8.20
2022-09-15T10:39:10.620Z,4.53
2022-09-15T10:42:33.337Z,10.60
2022-09-15T10:45:24.177Z,5.15
2022-09-15T10:48:20.709Z,14.40
2022-09-15T10:51:25.778Z,7.93
2022-09-15T10:54:24.006Z,7.63
2022-09-15T10:57:00.153Z,8.88
2022-09-15T10:59:47.588Z,3.97
2022-09-15T11:02:31.859Z,6.72
2022-09-15T11:05:22.806Z,6.68
2022-09-15T11:08:18.253Z,5.70
2022-09-15T11:10:56.606Z,7.53
2022-09-15T11:13:41.115Z,6.75
2022-09-15T11:16:56.700Z,5.03
2022-09-15T11:19:48.358Z,5.35
2022-09-15T11:22:37.193Z,2.95
2022-09-15T11:25:26.640Z,5.80
2022-09-15T11:28:18.359Z,8.50
2022-09-15T11:31:01.543Z,8.60
2022-09-15T11:33:43.399Z,7.35
2022-09-15T11:36:18.098Z,9.20
2022-09-15T11:39:07.331Z,6.88
2022-09-15T11:41:56.644Z,4.90
2022-09-15T11:44:34.374Z,9.98
2022-09-15T11:47:26.432Z,7.53
2022-09-15T11:50:11.920Z,4.90
2022-09-15T11:53:14.021Z,4.20
2022-09-15T11:55:45.739Z,7.22
2022-09-15T11:58:42.678Z,3.97
2022-09-15T12:01:22.113Z,10.65
2022-09-15T12:04:11.143Z,5.15
2022-09-15T12:06:54.426Z,2.55
2022-09-15T12:09:23.219Z,7.47
2022-09-15T12:12:00.732Z,3.53
2022-09-15T12:14:47.342Z,6.85
2022-09-15T12:17:39.995Z,8.07
2022-09-15T12:20:39.798Z,3.17
2022-09-15T12:23:32.909Z,7.93
2022-09-15T12:26:20.483Z,3.97
2022-09-15T12:28:51.259Z,2.58
2022-09-15T12:31:37.496Z,7.03
2022-09-15T12:34:25.165Z,5.30
2022-09-15T12:37:13.015Z,8.10
2022-09-15T12:39:48.081Z,8.63
2022-09-15T12:45:19.524Z,8.38
2022-09-15T12:47:56.886Z,6.20
2022-09-15T12:50:37.196Z,7.20
2022-09-15T12:53:24.953Z,8.45
2022-09-15T12:56:02.972Z,5.78
2022-09-15T12:58:39.541Z,11.10
2022-09-15T13:01:44.850Z,12.95
2022-09-15T13:04:26.770Z,8.57
2022-09-15T13:07:15.736Z,10.15
2022-09-15T13:10:00.758Z,15.00
2022-09-15T13:12:36.248Z,13.00
2022-09-15T13:15:08.101Z,27.52
2022-09-15T13:17:36.783Z,22.70
2022-09-15T13:20:16.983Z,27.08
2022-09-15T13:22:53.527Z,19.60
2022-09-15T13:25:28.378Z,16.65
2022-09-15T13:28:00.591Z,12.65
2022-09-15T13:30:54.076Z,15.52
2022-09-15T13:40:37.437Z,20.63
2022-09-15T13:43:49.199Z,14.10
2022-09-15T13:46:29.214Z,21.13
2022-09-15T13:49:11.264Z,17.55
2022-09-15T13:51:41.989Z,13.48
2022-09-15T13:54:19.794Z,6.65
2022-09-15T13:56:49.203Z,19.83
2022-09-15T13:59:31.444Z,17.27
2022-09-15T14:02:00.644Z,12.48
2022-09-15T14:04:31.675Z,19.95
2022-09-15T14:07:01.731Z,17.90
2022-09-15T14:09:45.040Z,19.60
2022-09-15T14:12:15.262Z,10.30
2022-09-15T14:14:53.915Z,13.07
2022-09-15T14:17:30.263Z,7.78
2022-09-15T14:20:01.505Z,6.30
2022-09-15T14:22:33.530Z,9.68
2022-09-15T14:25:16.866Z,6.90
2022-09-15T14:27:48.999Z,9.70
2022-09-15T14:30:24.081Z,11.80
2022-09-15T14:32:55.336Z,9.52
2022-09-15T14:35:45.822Z,7.65
2022-09-15T14:38:25.595Z,7.28
2022-09-15T14:40:57.066Z,10.43
2022-09-15T14:43:26.982Z,5.18
2022-09-15T14:46:02.771Z,3.97
2022-09-15T15:07:20.138Z,11.65
2022-09-15T15:10:00.367Z,14.70
2022-09-15T15:12:35.252Z,22.85
2022-09-15T15:15:03.698Z,19.05
2022-09-15T15:17:44.050Z,23.23
2022-09-15T15:20:11.350Z,16.45
2022-09-15T15:22:43.940Z,15.68
2022-09-15T15:25:41.843Z,16.25
2022-09-15T15:28:37.586Z,18.60
2022-09-15T15:31:23.825Z,11.85
2022-09-15T15:34:07.352Z,16.50
2022-09-15T15:36:36.758Z,14.77
2022-09-15T15:39:07.302Z,11.23
2022-09-15T15:41:41.124Z,13.07
2022-09-15T15:44:27.784Z,13.85
2022-09-15T15:47:03.214Z,8.98
2022-09-15T15:49:32.695Z,7.93
2022-09-15T15:52:02.056Z,15.95
2022-09-15T15:54:29.719Z,10.27
2022-09-15T15:57:22.162Z,9.68
2022-09-15T15:59:50.599Z,14.77
2022-09-15T16:02:18.361Z,11.45
2022-09-15T16:04:45.874Z,14.35
2022-09-15T16:07:19.663Z,28.48
2022-09-15T16:09:48.858Z,12.18
2022-09-15T16:12:16.872Z,9.52
2022-09-15T16:14:46.893Z,9.50
2022-09-15T16:17:14.267Z,13.05
2022-09-15T16:19:41.843Z,10.63
2022-09-15T16:22:20.780Z,11.00
2022-09-15T16:24:48.409Z,12.63
2022-09-15T16:27:18.215Z,14.18
2022-09-15T16:29:45.736Z,13.00
2022-09-15T16:32:22.127Z,10.00
2022-09-15T16:34:52.683Z,18.80
2022-09-15T16:37:20.114Z,11.88
2022-09-15T16:39:47.503Z,7.03
2022-09-15T16:42:14.961Z,9.75
2022-09-15T16:44:43.378Z,14.18
2022-09-15T16:47:11.111Z,8.90
2022-09-15T16:49:39.642Z,18.60
2022-09-15T16:52:09.369Z,13.27
2022-09-15T16:54:36.822Z,12.48
2022-09-15T16:57:04.534Z,13.13
2022-09-15T16:59:32.006Z,6.32
2022-09-15T17:01:59.644Z,13.60
2022-09-15T17:04:27.122Z,9.27
2022-09-15T17:06:54.838Z,6.80
2022-09-15T17:09:22.465Z,12.90
2022-09-15T17:11:50.233Z,17.23
2022-09-15T17:14:18.813Z,12.35
2022-09-15T17:16:47.619Z,12.18
2022-09-15T17:19:15.187Z,8.45
2022-09-15T17:21:42.540Z,13.40
2022-09-15T17:24:10.068Z,10.77
2022-09-15T17:26:37.676Z,15.35
2022-09-15T17:29:05.443Z,13.52
2022-09-15T17:31:33.086Z,8.88
2022-09-15T17:34:02.550Z,10.23
2022-09-15T17:36:30.490Z,9.43
2022-09-15T17:38:58.156Z,11.85
2022-09-15T17:41:25.589Z,9.35
2022-09-15T17:43:53.236Z,9.15
2022-09-15T17:46:20.955Z,12.82
2022-09-15T17:48:48.700Z,12.40
2022-09-15T17:51:17.537Z,15.02
2022-09-15T17:53:47.143Z,7.65
2022-09-15T17:56:14.902Z,10.18
2022-09-15T17:58:43.544Z,9.52
2022-09-15T18:01:15.610Z,11.50
2022-09-15T18:03:45.042Z,7.97
2022-09-15T18:06:13.088Z,9.57
2022-09-15T18:08:40.717Z,7.35
2022-09-15T18:11:08.399Z,11.73
2022-09-15T18:13:37.333Z,8.90
2022-09-15T18:16:10.816Z,6.40
2022-09-15T18:18:40.187Z,8.40
2022-09-15T18:21:12.434Z,6.80
2022-09-15T18:23:42.622Z,10.45
2022-09-15T18:26:10.380Z,6.32
2022-09-15T18:28:37.914Z,5.30
2022-09-15T18:31:05.526Z,5.88
2022-09-15T18:33:33.079Z,11.63
2022-09-15T18:36:01.647Z,11.45
2022-09-15T18:38:29.239Z,13.48
2022-09-15T18:40:57.964Z,8.57
2022-09-15T18:43:28.069Z,10.25
2022-09-15T18:46:00.241Z,21.90
2022-09-15T18:48:31.486Z,15.13
2022-09-15T18:50:59.107Z,10.90
2022-09-15T18:53:26.563Z,12.60
2022-09-15T18:55:54.127Z,12.02
2022-09-15T18:58:22.668Z,15.48
2022-09-15T19:00:50.470Z,6.03
2022-09-15T19:03:17.886Z,15.82
2022-09-15T19:05:46.187Z,13.80
2022-09-15T19:08:13.802Z,10.20
2022-09-15T19:10:44.364Z,6.82
2022-09-15T19:13:14.373Z,10.30
2022-09-15T19:15:44.320Z,7.38
2022-09-15T19:18:12.243Z,12.02
2022-09-15T19:20:40.616Z,7.75
2022-09-15T19:23:09.086Z,11.85
2022-09-15T19:25:37.705Z,8.02
2022-09-15T19:28:05.270Z,10.23
2022-09-15T19:30:32.943Z,11.60
2022-09-15T19:33:02.144Z,10.70
2022-09-15T19:35:30.152Z,7.53
2022-09-15T19:37:58.005Z,5.75
2022-09-15T19:40:25.605Z,7.72
2022-09-15T19:42:53.068Z,9.82
2022-09-15T19:45:20.606Z,7.65
2022-09-15T19:47:48.832Z,7.85
2022-09-15T19:50:16.607Z,5.43
2022-09-15T19:52:44.112Z,7.07
2022-09-15T19:55:13.243Z,5.95
2022-09-15T19:57:42.640Z,6.18
2022-09-15T20:00:13.546Z,7.97
2022-09-15T20:02:41.535Z,5.70
2022-09-15T20:07:54.261Z,2.63
2022-09-15T20:10:21.667Z,4.18
2022-09-15T20:12:49.154Z,4.50
2022-09-15T20:15:16.780Z,7.93
2022-09-15T20:17:44.349Z,4.47
2022-09-15T20:20:12.250Z,4.45
2022-09-15T20:22:39.815Z,5.93
2022-09-15T20:25:07.682Z,4.03
2022-09-15T20:27:35.921Z,4.82
2022-09-15T20:35:30.028Z,8.05
2022-09-15T20:37:57.609Z,5.43
2022-09-15T20:40:26.610Z,4.90
2022-09-15T20:42:54.191Z,3.00
2022-09-15T20:45:21.614Z,4.93
2022-09-15T20:47:49.252Z,9.80
2022-09-15T20:50:17.418Z,5.68
2022-09-15T20:52:45.020Z,5.13
2022-09-15T20:55:12.433Z,9.57
2022-09-15T20:57:39.721Z,5.72
2022-09-15T21:00:09.716Z,5.65
2022-09-15T21:02:37.077Z,5.07
2022-09-15T21:05:04.812Z,6.80
2022-09-15T21:07:32.191Z,5.15
2022-09-15T21:09:59.710Z,4.63
2022-09-15T21:12:27.683Z,3.63
2022-09-15T21:14:55.691Z,4.80
2022-09-15T21:17:23.396Z,8.90
2022-09-15T21:19:50.913Z,6.80
2022-09-15T21:22:18.436Z,11.90
2022-09-15T21:24:45.858Z,12.18
2022-09-15T21:27:29.172Z,15.60
2022-09-15T21:29:57.193Z,12.95
2022-09-15T21:32:24.695Z,9.40
2022-09-15T21:34:52.184Z,10.88
2022-09-15T21:37:21.831Z,14.15
2022-09-15T21:39:49.611Z,11.65
2022-09-15T21:42:17.727Z,8.77
2022-09-15T21:44:45.400Z,12.43
2022-09-15T21:47:12.655Z,8.63
2022-09-15T21:49:39.979Z,9.35
2022-09-15T21:52:07.455Z,10.88
2022-09-15T21:54:34.870Z,14.18
2022-09-15T21:57:02.324Z,14.18
2022-09-15T21:59:29.783Z,12.93
2022-09-15T22:01:58.034Z,10.48
2022-09-15T22:04:25.851Z,16.92
2022-09-15T22:06:53.606Z,14.73
2022-09-15T22:09:21.667Z,14.23
2022-09-15T22:11:49.566Z,8.18
2022-09-15T22:14:17.055Z,12.13
2022-09-15T22:16:44.534Z,11.68
2022-09-15T22:19:12.981Z,10.70
2022-09-15T22:21:42.196Z,11.13
2022-09-15T22:24:13.243Z,10.23
2022-09-15T22:26:42.700Z,10.70
2022-09-15T22:29:10.833Z,8.23
2022-09-15T22:31:38.826Z,7.85
2022-09-15T22:34:06.416Z,11.82
2022-09-15T22:36:34.345Z,10.02
2022-09-15T22:39:06.113Z,8.40
2022-09-15T22:41:39.192Z,10.18
2022-09-15T22:44:11.297Z,7.25
2022-09-15T22:46:38.850Z,9.63
2022-09-15T22:49:06.468Z,8.45
2022-09-15T22:51:34.016Z,7.90
2022-09-15T22:54:03.305Z,5.88
2022-09-15T22:56:30.970Z,7.70
2022-09-15T22:59:01.572Z,6.22
2022-09-15T23:01:31.038Z,5.63
2022-09-15T23:04:01.821Z,6.43
2022-09-15T23:06:32.954Z,5.45
2022-09-15T23:09:05.480Z,5.60
2022-09-15T23:11:33.452Z,4.03
2022-09-15T23:14:02.060Z,5.00
2022-09-15T23:16:31.225Z,6.80
2022-09-15T23:18:59.664Z,6.28
2022-09-15T23:21:28.460Z,7.93
2022-09-15T23:23:56.189Z,5.90
2022-09-15T23:26:25.086Z,6.22
2022-09-15T23:28:53.122Z,8.48
2022-09-15T23:31:21.881Z,8.98
2022-09-15T23:33:49.917Z,5.78
2022-09-15T23:36:21.418Z,6.55
2022-09-15T23:38:49.594Z,5.05
2022-09-15T23:41:18.429Z,7.07
2022-09-15T23:43:46.640Z,5.80
2022-09-15T23:46:14.497Z,7.93
2022-09-15T23:48:42.444Z,5.53
2022-09-15T23:51:10.089Z,8.10
2022-09-15T23:53:37.684Z,4.65
2022-09-15T23:56:05.331Z,6.85
2022-09-15T23:58:32.808Z,7.95
